createdAt,value
2023-02-01T00:01:59.564Z,4.73
2023-02-01T00:04:27.885Z,4.70
2023-02-01T00:06:56.265Z,4.79
2023-02-01T00:09:25.924Z,4.73
2023-02-01T00:12:00.525Z,4.69
2023-02-01T00:14:30.663Z,4.66
2023-02-01T00:16:59.103Z,4.77
2023-02-01T00:19:27.535Z,4.59
2023-02-01T00:21:57.023Z,4.66
2023-02-01T00:24:25.681Z,4.63
2023-02-01T00:26:55.525Z,4.69
2023-02-01T00:29:24.471Z,4.63
2023-02-01T00:31:54.694Z,4.59
2023-02-01T00:34:23.689Z,4.70
2023-02-01T00:36:52.160Z,4.82
2023-02-01T00:39:20.534Z,4.74
2023-02-01T00:41:51.717Z,4.74
2023-02-01T00:44:22.004Z,4.78
2023-02-01T00:46:50.416Z,4.87
2023-02-01T00:49:20.056Z,4.86
2023-02-01T00:51:48.685Z,4.82
2023-02-01T00:54:17.203Z,4.80
2023-02-01T00:56:45.255Z,4.83
2023-02-01T00:59:14.136Z,4.93
2023-02-01T01:01:44.274Z,4.93
2023-02-01T01:04:13.077Z,5.00
2023-02-01T01:06:41.749Z,4.99
2023-02-01T01:09:11.867Z,5.07
2023-02-01T01:11:42.385Z,5.10
2023-02-01T01:14:13.505Z,5.14
2023-02-01T01:16:41.880Z,5.20
2023-02-01T01:19:13.048Z,5.13
2023-02-01T01:21:41.458Z,5.13
2023-02-01T01:24:09.883Z,5.17
2023-02-01T01:26:41.264Z,5.14
2023-02-01T01:29:11.829Z,5.12
2023-02-01T01:31:40.579Z,5.13
2023-02-01T01:34:09.237Z,5.14
2023-02-01T01:36:40.145Z,5.14
2023-02-01T01:39:08.762Z,5.23
2023-02-01T01:41:37.293Z,5.21
2023-02-01T01:44:07.384Z,5.22
2023-02-01T01:46:38.574Z,5.23
2023-02-01T01:49:16.264Z,5.37
2023-02-01T01:51:52.947Z,5.23
2023-02-01T01:54:26.947Z,5.32
2023-02-01T01:57:00.017Z,5.35
2023-02-01T01:59:33.836Z,5.27
2023-02-01T02:02:02.547Z,5.24
2023-02-01T02:04:34.089Z,5.22
2023-02-01T02:07:07.960Z,5.25
2023-02-01T02:09:36.459Z,5.30
2023-02-01T02:12:05.215Z,5.28
2023-02-01T02:14:34.272Z,5.22
2023-02-01T02:17:21.215Z,5.31
2023-02-01T02:20:24.896Z,5.30
2023-02-01T02:23:14.599Z,5.33
2023-02-01T02:26:17.434Z,5.26
2023-02-01T02:29:12.110Z,5.24
2023-02-01T02:32:02.525Z,5.37
2023-02-01T02:34:39.852Z,5.31
2023-02-01T02:37:18.676Z,5.35
2023-02-01T02:39:55.821Z,5.36
2023-02-01T02:42:48.181Z,5.34
2023-02-01T02:45:39.469Z,5.31
2023-02-01T02:48:15.371Z,5.31
2023-02-01T02:51:06.451Z,5.40
2023-02-01T02:53:58.427Z,5.33
2023-02-01T02:56:46.565Z,5.53
2023-02-01T02:59:37.464Z,5.53
2023-02-01T03:02:24.935Z,5.50
2023-02-01T03:04:57.945Z,5.52
2023-02-01T03:07:52.374Z,5.44
2023-02-01T03:10:29.697Z,5.38
2023-02-01T03:13:04.559Z,5.31
2023-02-01T03:15:38.410Z,5.40
2023-02-01T03:18:13.453Z,5.34
2023-02-01T03:20:47.456Z,5.42
2023-02-01T03:23:20.907Z,5.26
2023-02-01T03:25:51.047Z,5.37
2023-02-01T03:28:25.184Z,5.34
2023-02-01T03:30:53.397Z,5.42
2023-02-01T03:33:25.810Z,5.54
2023-02-01T03:36:03.452Z,5.44
2023-02-01T03:38:37.349Z,5.42
2023-02-01T03:41:14.424Z,5.55
2023-02-01T03:43:54.167Z,5.52
2023-02-01T03:46:33.881Z,5.43
2023-02-01T03:49:05.684Z,5.38
2023-02-01T03:51:35.581Z,5.47
2023-02-01T03:54:09.413Z,5.52
2023-02-01T03:56:40.805Z,5.51
2023-02-01T03:59:10.560Z,5.44
2023-02-01T04:01:39.113Z,5.55
2023-02-01T04:04:07.630Z,5.58
2023-02-01T04:06:35.706Z,5.41
2023-02-01T04:09:06.090Z,5.55
2023-02-01T04:11:34.338Z,5.44
2023-02-01T04:14:05.661Z,5.56
2023-02-01T04:16:34.153Z,5.49
2023-02-01T04:19:03.100Z,5.59
2023-02-01T04:21:31.986Z,5.56
2023-02-01T04:24:00.618Z,5.69
2023-02-01T04:26:30.734Z,5.70
2023-02-01T04:28:59.210Z,5.66
2023-02-01T04:31:28.278Z,5.71
2023-02-01T04:33:58.762Z,5.56
2023-02-01T04:36:27.277Z,5.58
2023-02-01T04:38:56.117Z,5.59
2023-02-01T04:41:25.219Z,5.72
2023-02-01T04:43:56.262Z,5.52
2023-02-01T04:46:25.154Z,5.58
2023-02-01T04:48:53.700Z,5.62
2023-02-01T04:51:23.926Z,5.57
2023-02-01T04:53:52.556Z,5.59
2023-02-01T04:56:20.990Z,5.71
2023-02-01T04:58:50.288Z,5.62
2023-02-01T05:01:20.291Z,5.65
2023-02-01T05:03:49.198Z,5.69
2023-02-01T05:06:17.909Z,5.71
2023-02-01T05:08:46.120Z,5.69
2023-02-01T05:11:47.018Z,5.51
2023-02-01T05:14:14.348Z,5.63
2023-02-01T05:16:45.619Z,5.47
2023-02-01T05:19:14.155Z,5.38
2023-02-01T05:21:42.232Z,5.44
2023-02-01T05:24:14.837Z,5.43
2023-02-01T05:26:44.306Z,5.47
2023-02-01T05:29:13.152Z,5.25
2023-02-01T05:31:44.183Z,5.36
2023-02-01T05:34:14.162Z,5.36
2023-02-01T05:36:42.701Z,5.38
2023-02-01T05:39:15.657Z,5.35
2023-02-01T05:41:44.012Z,5.30
2023-02-01T05:44:15.187Z,5.35
2023-02-01T05:46:43.496Z,5.42
2023-02-01T05:49:13.471Z,5.47
2023-02-01T05:51:41.892Z,5.52
2023-02-01T05:54:12.773Z,5.49
2023-02-01T05:56:41.978Z,5.39
2023-02-01T05:59:16.877Z,5.23
2023-02-01T06:01:45.239Z,5.36
2023-02-01T06:04:17.747Z,5.35
2023-02-01T06:06:45.841Z,5.39
2023-02-01T06:09:14.109Z,5.31
2023-02-01T06:11:42.848Z,5.26
2023-02-01T06:14:11.055Z,5.36
2023-02-01T06:16:39.683Z,5.39
2023-02-01T06:19:10.020Z,5.38
2023-02-01T06:21:42.368Z,5.39
2023-02-01T06:24:12.164Z,5.45
2023-02-01T06:26:42.969Z,5.28
2023-02-01T06:29:12.711Z,5.29
2023-02-01T06:31:45.777Z,5.27
2023-02-01T06:34:14.345Z,5.26
2023-02-01T06:36:44.211Z,5.33
2023-02-01T06:39:16.840Z,5.13
2023-02-01T06:41:45.477Z,5.30
2023-02-01T06:44:13.819Z,5.16
2023-02-01T06:46:48.892Z,5.30
2023-02-01T06:49:17.349Z,5.35
2023-02-01T06:51:50.980Z,5.29
2023-02-01T06:54:19.440Z,5.24
2023-02-01T06:56:50.267Z,5.40
2023-02-01T06:59:18.582Z,5.36
2023-02-01T07:01:46.990Z,5.38
2023-02-01T07:04:15.359Z,5.51
2023-02-01T07:06:43.455Z,5.52
2023-02-01T07:09:13.318Z,5.41
2023-02-01T07:11:44.339Z,5.46
2023-02-01T07:14:13.124Z,5.48
2023-02-01T07:16:41.982Z,5.39
2023-02-01T07:19:10.300Z,5.39
2023-02-01T07:21:38.465Z,5.45
2023-02-01T07:24:07.576Z,5.41
2023-02-01T07:26:38.142Z,5.45
2023-02-01T07:29:06.681Z,5.28
2023-02-01T07:31:35.092Z,5.42
2023-02-01T07:34:05.544Z,5.36
2023-02-01T07:36:34.754Z,5.37
2023-02-01T07:39:04.471Z,5.39
2023-02-01T07:41:32.936Z,5.49
2023-02-01T07:44:02.683Z,5.50
2023-02-01T07:46:30.940Z,5.50
2023-02-01T07:48:59.239Z,5.54
2023-02-01T07:51:27.439Z,5.58
2023-02-01T07:53:59.529Z,5.53
2023-02-01T07:56:27.902Z,5.59
2023-02-01T07:58:57.316Z,5.59
2023-02-01T08:01:28.797Z,5.66
2023-02-01T08:04:00.184Z,5.71
2023-02-01T08:06:30.773Z,5.68
2023-02-01T08:08:59.394Z,5.64
2023-02-01T08:11:28.451Z,5.78
2023-02-01T08:13:56.798Z,5.70
2023-02-01T08:16:26.959Z,5.74
2023-02-01T08:18:56.042Z,5.80
2023-02-01T08:21:26.174Z,5.76
2023-02-01T08:23:55.124Z,5.81
2023-02-01T08:26:25.143Z,5.84
2023-02-01T08:28:56.097Z,5.83
2023-02-01T08:31:27.310Z,5.89
2023-02-01T08:33:58.213Z,5.85
2023-02-01T08:36:27.678Z,5.91
2023-02-01T08:38:56.331Z,5.77
2023-02-01T08:41:27.068Z,5.72
2023-02-01T08:43:59.049Z,5.88
2023-02-01T08:46:29.024Z,5.82
2023-02-01T08:48:58.660Z,5.88
2023-02-01T08:51:27.148Z,5.89
2023-02-01T08:53:55.656Z,5.77
2023-02-01T08:56:24.017Z,5.89
2023-02-01T08:58:52.837Z,5.90
2023-02-01T09:01:21.119Z,5.91
2023-02-01T09:03:53.793Z,6.02
2023-02-01T09:06:22.902Z,5.99
2023-02-01T09:08:51.311Z,5.81
2023-02-01T09:11:21.516Z,5.98
2023-02-01T09:13:50.881Z,5.97
2023-02-01T09:16:20.090Z,6.01
2023-02-01T09:18:56.464Z,5.93
2023-02-01T09:21:37.855Z,6.02
2023-02-01T09:24:08.007Z,6.03
2023-02-01T09:26:36.508Z,6.10
2023-02-01T09:29:07.523Z,5.97
2023-02-01T09:31:41.908Z,6.04
2023-02-01T09:34:13.770Z,5.95
2023-02-01T09:36:43.520Z,6.08
2023-02-01T09:39:12.368Z,6.10
2023-02-01T09:41:50.904Z,5.96
2023-02-01T09:44:42.399Z,6.05
2023-02-01T09:47:15.733Z,6.00
2023-02-01T09:49:53.946Z,6.06
2023-02-01T09:52:30.395Z,6.03
2023-02-01T09:55:05.071Z,5.98
2023-02-01T09:57:46.797Z,5.94
2023-02-01T10:00:23.704Z,5.99
2023-02-01T10:02:53.008Z,5.90
2023-02-01T10:05:31.593Z,5.94
2023-02-01T10:08:11.396Z,5.93
2023-02-01T10:10:46.316Z,5.94
2023-02-01T10:13:36.468Z,6.06
2023-02-01T10:16:20.270Z,6.07
2023-02-01T10:18:59.944Z,5.99
2023-02-01T10:21:42.815Z,6.07
2023-02-01T10:24:41.927Z,6.03
2023-02-01T10:27:20.773Z,6.11
2023-02-01T10:29:56.397Z,6.15
2023-02-01T10:32:30.045Z,6.19
2023-02-01T10:35:01.201Z,6.17
2023-02-01T10:37:36.533Z,6.01
2023-02-01T10:40:18.575Z,6.09
2023-02-01T10:42:47.966Z,6.03
2023-02-01T10:45:18.873Z,6.09
2023-02-01T10:47:50.235Z,6.00
2023-02-01T10:50:27.683Z,5.92
2023-02-01T10:53:04.016Z,5.86
2023-02-01T10:55:39.371Z,6.13
2023-02-01T10:58:17.354Z,6.14
2023-02-01T11:00:49.319Z,5.93
2023-02-01T11:03:34.646Z,6.18
2023-02-01T11:06:05.013Z,6.07
2023-02-01T11:08:33.525Z,6.08
2023-02-01T11:11:07.051Z,6.24
2023-02-01T11:13:40.415Z,6.13
2023-02-01T11:16:13.243Z,6.24
2023-02-01T11:18:41.751Z,6.22
2023-02-01T11:21:12.028Z,6.13
2023-02-01T11:23:46.412Z,6.19
2023-02-01T11:26:24.975Z,6.30
2023-02-01T11:28:59.281Z,6.28
2023-02-01T11:31:29.991Z,6.37
2023-02-01T11:34:02.704Z,6.28
2023-02-01T11:36:34.073Z,6.25
2023-02-01T11:39:13.114Z,6.26
2023-02-01T11:41:57.269Z,6.33
2023-02-01T11:44:34.002Z,6.12
2023-02-01T11:47:29.699Z,6.32
2023-02-01T11:50:00.627Z,6.20
2023-02-01T11:52:45.321Z,6.23
2023-02-01T11:55:29.710Z,6.18
2023-02-01T11:58:14.759Z,6.35
2023-02-01T12:01:00.528Z,6.29
2023-02-01T12:04:16.912Z,6.27
2023-02-01T12:06:52.136Z,6.17
2023-02-01T12:09:43.549Z,6.32
2023-02-01T12:12:20.459Z,6.42
2023-02-01T12:15:10.107Z,6.49
2023-02-01T12:18:08.633Z,6.46
2023-02-01T12:21:11.765Z,6.58
2023-02-01T12:23:52.631Z,6.42
2023-02-01T12:26:43.248Z,6.62
2023-02-01T12:29:24.789Z,6.60
2023-02-01T12:32:16.949Z,6.62
2023-02-01T12:35:02.379Z,6.58
2023-02-01T12:37:45.626Z,6.80
2023-02-01T12:40:27.777Z,6.69
2023-02-01T12:43:03.017Z,6.68
2023-02-01T12:45:36.990Z,6.75
2023-02-01T12:48:22.389Z,6.87
2023-02-01T12:50:55.800Z,6.68
2023-02-01T12:53:27.442Z,6.79
2023-02-01T12:55:59.708Z,6.99
2023-02-01T12:58:35.296Z,6.92
2023-02-01T13:01:10.030Z,6.94
2023-02-01T13:03:43.702Z,7.11
2023-02-01T13:06:16.040Z,7.03
2023-02-01T13:08:48.999Z,6.95
2023-02-01T13:11:22.110Z,6.97
2023-02-01T13:13:58.394Z,7.03
2023-02-01T13:16:31.397Z,7.05
2023-02-01T13:19:07.480Z,7.07
2023-02-01T13:21:42.332Z,7.13
2023-02-01T13:24:24.632Z,7.00
2023-02-01T13:26:57.254Z,7.17
2023-02-01T13:29:27.599Z,7.41
2023-02-01T13:32:11.942Z,7.33
2023-02-01T13:34:59.825Z,7.54
2023-02-01T13:38:01.317Z,7.34
2023-02-01T13:40:39.350Z,7.24
2023-02-01T13:43:13.817Z,7.37
2023-02-01T13:45:48.604Z,7.34
2023-02-01T13:48:27.070Z,7.36
2023-02-01T13:51:00.038Z,7.32
2023-02-01T13:53:32.719Z,7.17
2023-02-01T13:56:06.595Z,7.22
2023-02-01T13:58:37.505Z,7.21
2023-02-01T14:01:36.081Z,7.20
2023-02-01T14:04:07.567Z,7.17
2023-02-01T14:06:43.416Z,7.20
2023-02-01T14:09:21.301Z,7.16
2023-02-01T14:11:52.098Z,7.07
2023-02-01T14:14:48.439Z,7.16
2023-02-01T14:17:39.835Z,7.14
2023-02-01T14:20:54.839Z,7.06
2023-02-01T14:23:42.389Z,7.21
2023-02-01T14:26:28.214Z,7.15
2023-02-01T14:29:02.929Z,7.27
2023-02-01T14:31:40.320Z,7.22
2023-02-01T14:34:17.000Z,7.24
2023-02-01T14:36:49.839Z,7.17
2023-02-01T14:39:51.180Z,7.26
2023-02-01T14:42:27.219Z,7.33
2023-02-01T14:44:58.871Z,7.29
2023-02-01T14:47:34.302Z,7.22
2023-02-01T14:50:12.860Z,7.24
2023-02-01T14:52:46.410Z,7.29
2023-02-01T14:55:20.228Z,7.21
2023-02-01T14:57:53.087Z,7.10
2023-02-01T15:00:26.165Z,6.97
2023-02-01T15:02:56.584Z,6.99
2023-02-01T15:05:35.355Z,7.00
2023-02-01T15:08:17.549Z,6.94
2023-02-01T15:10:52.036Z,6.86
2023-02-01T15:13:26.334Z,6.73
2023-02-01T15:16:06.478Z,6.71
2023-02-01T15:18:35.558Z,6.60
2023-02-01T15:21:26.291Z,6.59
2023-02-01T15:24:13.202Z,6.48
2023-02-01T15:26:43.716Z,6.47
2023-02-01T15:29:15.145Z,6.46
2023-02-01T15:31:45.931Z,6.51
2023-02-01T15:34:15.197Z,6.26
2023-02-01T15:36:56.900Z,6.29
2023-02-01T15:39:32.450Z,6.19
2023-02-01T15:42:12.143Z,6.19
2023-02-01T15:44:43.132Z,6.07
2023-02-01T15:47:19.370Z,6.10
2023-02-01T15:49:52.354Z,5.99
2023-02-01T15:52:29.080Z,6.13
2023-02-01T15:55:04.732Z,6.09
2023-02-01T15:57:40.585Z,5.98
2023-02-01T16:00:22.312Z,5.98
2023-02-01T16:02:56.400Z,5.99
2023-02-01T16:05:35.260Z,5.99
2023-02-01T16:08:09.259Z,5.92
2023-02-01T16:10:43.230Z,5.89
2023-02-01T16:13:13.103Z,5.91
2023-02-01T16:15:41.737Z,5.93
2023-02-01T16:18:12.309Z,5.99
2023-02-01T16:20:42.698Z,5.82
2023-02-01T16:23:12.912Z,5.96
2023-02-01T16:25:42.215Z,5.88
2023-02-01T16:28:11.174Z,5.92
2023-02-01T16:30:41.922Z,5.83
2023-02-01T16:37:01.687Z,5.94
2023-02-01T16:39:34.315Z,5.95
2023-02-01T16:42:04.363Z,5.99
2023-02-01T16:44:33.552Z,6.08
2023-02-01T16:47:03.522Z,6.06
2023-02-01T16:49:32.312Z,6.05
2023-02-01T16:52:04.188Z,6.09
2023-02-01T16:54:33.194Z,6.15
2023-02-01T16:57:03.950Z,6.06
2023-02-01T16:59:34.757Z,6.06
2023-02-01T17:02:05.315Z,6.06
2023-02-01T17:04:36.908Z,6.01
2023-02-01T17:07:11.090Z,6.01
2023-02-01T17:09:42.923Z,6.02
2023-02-01T17:12:22.155Z,6.03
2023-02-01T17:14:51.313Z,5.93
2023-02-01T17:17:38.306Z,5.95
2023-02-01T17:20:10.923Z,5.98
2023-02-01T17:22:42.174Z,5.93
2023-02-01T17:25:17.899Z,5.98
2023-02-01T17:27:52.955Z,6.05
2023-02-01T17:30:22.020Z,6.02
2023-02-01T17:32:57.113Z,6.08
2023-02-01T17:35:30.685Z,6.12
2023-02-01T17:38:00.926Z,6.01
2023-02-01T17:40:30.842Z,6.03
2023-02-01T17:43:00.568Z,6.05
2023-02-01T17:45:38.610Z,5.97
2023-02-01T17:48:11.042Z,5.88
2023-02-01T17:50:40.779Z,5.91
2023-02-01T17:53:11.634Z,5.87
2023-02-01T17:55:44.936Z,5.96
2023-02-01T17:58:14.703Z,5.88
2023-02-01T18:00:45.382Z,5.92
2023-02-01T18:03:24.117Z,5.90
2023-02-01T18:05:53.958Z,5.81
2023-02-01T18:08:24.049Z,5.87
2023-02-01T18:10:55.036Z,5.74
2023-02-01T18:13:23.795Z,5.71
2023-02-01T18:15:52.596Z,5.73
2023-02-01T18:18:22.911Z,5.63
2023-02-01T18:20:52.499Z,5.64
2023-02-01T18:23:23.521Z,5.65
2023-02-01T18:25:54.270Z,5.74
2023-02-01T18:28:22.693Z,5.69
2023-02-01T18:30:53.372Z,5.70
2023-02-01T18:33:23.353Z,5.70
2023-02-01T18:35:52.602Z,5.75
2023-02-01T18:38:22.673Z,5.71
2023-02-01T18:40:52.789Z,5.63
2023-02-01T18:43:21.417Z,5.63
2023-02-01T18:45:50.506Z,5.71
2023-02-01T18:48:22.691Z,5.81
2023-02-01T18:50:57.387Z,5.87
2023-02-01T18:53:27.669Z,5.87
2023-02-01T18:55:56.834Z,5.95
2023-02-01T18:58:26.657Z,5.84
2023-02-01T19:00:57.609Z,5.93
2023-02-01T19:03:26.844Z,5.79
2023-02-01T19:05:58.695Z,5.93
2023-02-01T19:08:27.626Z,5.85
2023-02-01T19:10:56.586Z,5.94
2023-02-01T19:13:27.665Z,5.86
2023-02-01T19:15:57.030Z,5.92
2023-02-01T19:18:26.886Z,5.88
2023-02-01T19:20:55.241Z,6.03
2023-02-01T19:23:25.285Z,6.02
2023-02-01T19:25:53.722Z,5.97
2023-02-01T19:28:21.820Z,6.11
2023-02-01T19:30:51.882Z,6.13
2023-02-01T19:33:20.266Z,6.02
2023-02-01T19:35:48.840Z,6.10
2023-02-01T19:38:17.199Z,6.11
2023-02-01T19:40:50.483Z,6.05
2023-02-01T19:43:18.947Z,6.08
2023-02-01T19:45:47.302Z,6.13
2023-02-01T19:48:17.544Z,6.09
2023-02-01T19:50:47.606Z,6.24
2023-02-01T19:53:16.702Z,6.23
2023-02-01T19:55:49.586Z,6.14
2023-02-01T19:58:19.069Z,6.13
2023-02-01T20:00:46.673Z,6.17
2023-02-01T20:03:14.873Z,6.30
2023-02-01T20:05:43.423Z,6.26
2023-02-01T20:08:12.215Z,6.34
2023-02-01T20:10:44.720Z,6.35
2023-02-01T20:13:15.333Z,6.39
2023-02-01T20:15:44.753Z,6.38
2023-02-01T20:18:13.178Z,6.35
2023-02-01T20:20:42.735Z,6.40
2023-02-01T20:23:11.419Z,6.48
2023-02-01T20:25:41.458Z,6.40
2023-02-01T20:28:10.377Z,6.49
2023-02-01T20:30:40.630Z,6.58
2023-02-01T20:33:09.093Z,6.45
2023-02-01T20:35:38.614Z,6.54
2023-02-01T20:38:07.833Z,6.63
2023-02-01T20:40:38.957Z,6.60
2023-02-01T20:43:08.978Z,6.66
2023-02-01T20:45:41.945Z,6.72
2023-02-01T20:48:14.949Z,6.60
2023-02-01T20:50:44.238Z,6.69
2023-02-01T20:53:14.657Z,6.75
2023-02-01T20:55:52.865Z,6.81
2023-02-01T20:58:21.257Z,6.84
2023-02-01T21:00:51.538Z,6.93
2023-02-01T21:03:19.838Z,6.98
2023-02-01T21:05:50.411Z,7.11
2023-02-01T21:08:19.791Z,7.12
2023-02-01T21:10:57.910Z,7.11
2023-02-01T21:13:28.851Z,7.17
2023-02-01T21:15:59.647Z,7.18
2023-02-01T21:18:27.855Z,7.00
2023-02-01T21:20:56.264Z,6.85
2023-02-01T21:23:24.869Z,6.79
2023-02-01T21:25:53.418Z,6.72
2023-02-01T21:28:21.629Z,6.69
2023-02-01T21:30:49.891Z,6.59
2023-02-01T21:33:19.904Z,6.69
2023-02-01T21:35:51.779Z,6.67
2023-02-01T21:38:20.681Z,6.69
2023-02-01T21:41:12.773Z,6.74
2023-02-01T21:43:41.198Z,6.63
2023-02-01T21:46:09.684Z,6.64
2023-02-01T21:49:04.688Z,6.57
2023-02-01T21:51:30.336Z,6.65
2023-02-01T21:53:59.009Z,6.50
2023-02-01T21:56:27.537Z,6.58
2023-02-01T21:58:55.903Z,6.57
2023-02-01T22:01:24.210Z,6.65
2023-02-01T22:03:53.901Z,6.61
2023-02-01T22:06:25.775Z,6.56
2023-02-01T22:08:54.312Z,6.56
2023-02-01T22:11:23.164Z,6.62
2023-02-01T22:13:51.724Z,6.49
2023-02-01T22:16:21.764Z,6.60
2023-02-01T22:18:51.621Z,6.68
2023-02-01T22:21:24.186Z,6.61
2023-02-01T22:23:54.416Z,5.99
2023-02-01T22:26:24.454Z,5.61
2023-02-01T22:28:53.125Z,4.93
2023-02-01T22:31:22.211Z,4.55
2023-02-01T22:33:52.687Z,4.30
2023-02-01T22:36:22.874Z,4.21
2023-02-01T22:38:51.558Z,4.37
2023-02-01T22:41:21.032Z,4.22
2023-02-01T22:43:49.214Z,4.30
2023-02-01T22:46:25.430Z,4.28
2023-02-01T22:48:53.846Z,4.29
2023-02-01T22:51:32.455Z,4.43
2023-02-01T22:54:01.200Z,4.53
2023-02-01T22:56:31.568Z,4.62
2023-02-01T22:59:01.893Z,4.60
2023-02-01T23:01:30.777Z,4.65
2023-02-01T23:03:59.986Z,4.55
2023-02-01T23:06:30.509Z,4.64
2023-02-01T23:09:00.734Z,4.73
2023-02-01T23:11:29.556Z,4.79
2023-02-01T23:13:58.436Z,4.81
2023-02-01T23:16:28.823Z,4.82
2023-02-01T23:18:59.706Z,4.87
2023-02-01T23:21:29.937Z,4.77
2023-02-01T23:24:00.539Z,4.74
2023-02-01T23:26:31.832Z,4.77
2023-02-01T23:29:01.141Z,4.69
2023-02-01T23:31:33.201Z,4.69
2023-02-01T23:34:03.205Z,4.69
2023-02-01T23:36:34.392Z,4.60
2023-02-01T23:39:05.433Z,4.67
2023-02-01T23:41:37.098Z,4.57
2023-02-01T23:44:05.607Z,4.46
2023-02-01T23:46:36.641Z,4.61
2023-02-01T23:49:07.217Z,4.35
2023-02-01T23:51:37.344Z,4.43
2023-02-01T23:54:06.625Z,4.37
2023-02-01T23:56:36.335Z,4.54
2023-02-01T23:59:06.815Z,4.52
